createdAt,value
2023-10-29T00:02:39.812Z,12.75
2023-10-29T00:05:27.077Z,11.55
2023-10-29T00:08:14.327Z,8.52
2023-10-29T00:11:01.802Z,10.73
2023-10-29T00:13:49.307Z,11.77
2023-10-29T00:16:36.464Z,11.85
2023-10-29T00:19:23.596Z,9.95
2023-10-29T00:22:10.772Z,10.48
2023-10-29T00:24:57.949Z,9.93
2023-10-29T00:27:45.114Z,12.15
2023-10-29T00:30:34.393Z,8.80
2023-10-29T00:33:21.937Z,9.00
2023-10-29T00:36:09.614Z,9.93
2023-10-29T00:38:57.548Z,9.45
2023-10-29T00:41:44.752Z,7.97
2023-10-29T00:44:32.597Z,8.50
2023-10-29T00:47:20.021Z,9.05
2023-10-29T00:50:08.534Z,12.63
2023-10-29T00:52:55.867Z,8.18
2023-10-29T00:55:43.705Z,9.20
2023-10-29T00:58:31.125Z,8.52
2023-10-29T01:01:18.912Z,8.35
2023-10-29T01:04:06.300Z,7.38
2023-10-29T01:06:53.558Z,8.02
2023-10-29T01:09:43.270Z,7.55
2023-10-29T01:12:30.438Z,8.57
2023-10-29T01:15:17.825Z,7.75
2023-10-29T01:18:05.101Z,8.32
2023-10-29T01:20:52.311Z,6.93
2023-10-29T01:23:39.992Z,6.00
2023-10-29T01:26:27.293Z,7.43
2023-10-29T01:29:14.425Z,7.03
2023-10-29T01:32:01.616Z,7.22
2023-10-29T01:34:50.820Z,8.38
2023-10-29T01:37:38.164Z,5.88
2023-10-29T01:40:26.416Z,6.30
2023-10-29T01:43:13.550Z,6.82
2023-10-29T01:46:00.731Z,5.55
2023-10-29T01:48:47.897Z,5.15
2023-10-29T01:51:35.108Z,6.30
2023-10-29T01:54:25.572Z,7.05
2023-10-29T01:57:12.805Z,5.07
2023-10-29T02:00:00.438Z,7.07
2023-10-29T02:02:48.678Z,5.78
2023-10-29T02:05:35.988Z,4.57
2023-10-29T02:08:23.159Z,5.32
2023-10-29T02:11:10.336Z,7.25
2023-10-29T02:13:57.811Z,5.30
2023-10-29T02:16:45.055Z,4.97
2023-10-29T02:19:32.590Z,6.30
2023-10-29T02:22:20.856Z,5.68
2023-10-29T02:25:08.735Z,5.53
2023-10-29T02:27:55.806Z,5.47
2023-10-29T02:30:44.925Z,5.63
2023-10-29T02:33:32.329Z,5.30
2023-10-29T02:36:19.564Z,5.97
2023-10-29T02:39:07.503Z,3.97
2023-10-29T02:41:55.466Z,4.93
2023-10-29T02:44:42.722Z,5.93
2023-10-29T02:47:29.996Z,5.30
2023-10-29T02:50:17.238Z,4.60
2023-10-29T02:53:04.570Z,4.57
2023-10-29T02:55:51.776Z,5.60
2023-10-29T02:58:38.998Z,5.72
2023-10-29T03:01:26.379Z,4.70
2023-10-29T03:04:13.798Z,4.20
2023-10-29T03:07:01.085Z,4.45
2023-10-29T03:09:48.214Z,4.40
2023-10-29T03:12:35.304Z,5.57
2023-10-29T03:15:22.406Z,3.53
2023-10-29T03:18:09.579Z,3.70
2023-10-29T03:20:56.927Z,3.72
2023-10-29T03:23:44.728Z,2.85
2023-10-29T03:26:32.213Z,5.03
2023-10-29T03:29:19.446Z,3.75
2023-10-29T03:32:07.017Z,4.72
2023-10-29T03:34:54.656Z,3.42
2023-10-29T03:37:41.797Z,3.58
2023-10-29T03:40:30.756Z,3.28
2023-10-29T03:43:17.950Z,3.60
2023-10-29T03:46:11.594Z,2.25
2023-10-29T03:48:58.936Z,2.55
2023-10-29T03:51:48.161Z,2.33
2023-10-29T03:54:36.006Z,3.72
2023-10-29T03:57:23.229Z,3.45
2023-10-29T04:00:11.769Z,3.10
2023-10-29T04:03:02.230Z,2.28
2023-10-29T04:05:49.738Z,3.03
2023-10-29T04:08:38.249Z,2.97
2023-10-29T04:11:25.553Z,2.72
2023-10-29T04:14:12.795Z,2.92
2023-10-29T04:17:00.497Z,3.40
2023-10-29T04:19:47.686Z,3.03
2023-10-29T04:22:34.816Z,2.70
2023-10-29T04:25:21.991Z,3.47
2023-10-29T04:28:09.105Z,3.00
2023-10-29T04:30:57.079Z,3.15
2023-10-29T04:33:46.302Z,3.28
2023-10-29T04:36:33.601Z,3.35
2023-10-29T04:39:20.802Z,2.67
2023-10-29T04:42:07.924Z,5.00
2023-10-29T04:44:55.115Z,2.83
2023-10-29T04:47:42.323Z,5.97
2023-10-29T04:50:31.569Z,4.63
2023-10-29T04:53:19.157Z,5.32
2023-10-29T04:56:08.033Z,4.78
2023-10-29T04:58:55.160Z,12.27
2023-10-29T05:01:42.474Z,9.90
2023-10-29T05:04:29.624Z,8.85
2023-10-29T05:07:16.775Z,10.35
2023-10-29T05:10:06.327Z,8.40
2023-10-29T05:12:53.481Z,8.90
2023-10-29T05:15:41.013Z,10.63
2023-10-29T05:18:28.416Z,8.65
2023-10-29T05:21:15.831Z,10.52
2023-10-29T05:24:04.003Z,9.05
2023-10-29T05:26:51.367Z,9.85
2023-10-29T05:29:38.612Z,11.73
2023-10-29T05:32:25.830Z,6.85
2023-10-29T05:35:13.364Z,8.57
2023-10-29T05:38:00.980Z,10.13
2023-10-29T05:40:48.337Z,5.90
2023-10-29T05:43:37.845Z,9.18
2023-10-29T05:46:25.003Z,6.03
2023-10-29T05:49:12.141Z,6.57
2023-10-29T05:51:59.316Z,6.40
2023-10-29T05:54:46.668Z,5.97
2023-10-29T05:57:33.988Z,7.10
2023-10-29T06:00:21.624Z,4.18
2023-10-29T06:03:08.822Z,6.65
2023-10-29T06:05:56.975Z,8.18
2023-10-29T06:08:44.230Z,7.25
2023-10-29T06:11:31.498Z,13.75
2023-10-29T06:14:19.219Z,8.23
2023-10-29T06:17:19.466Z,6.50
2023-10-29T06:20:10.062Z,4.82
2023-10-29T06:23:00.178Z,7.10
2023-10-29T06:25:47.336Z,12.70
2023-10-29T06:28:34.491Z,5.55
2023-10-29T06:31:30.601Z,5.18
2023-10-29T06:34:17.770Z,7.53
2023-10-29T06:37:05.074Z,7.18
2023-10-29T06:39:53.402Z,6.15
2023-10-29T06:42:40.650Z,6.20
2023-10-29T06:45:27.870Z,7.70
2023-10-29T06:48:15.332Z,4.65
2023-10-29T06:51:02.812Z,7.60
2023-10-29T06:53:50.073Z,7.55
2023-10-29T06:56:37.263Z,6.05
2023-10-29T06:59:25.014Z,6.85
2023-10-29T07:02:12.214Z,6.03
2023-10-29T07:05:00.868Z,5.97
2023-10-29T07:07:48.655Z,7.45
2023-10-29T07:10:35.979Z,6.13
2023-10-29T07:13:23.117Z,4.47
2023-10-29T07:16:10.785Z,5.38
2023-10-29T07:18:59.078Z,5.72
2023-10-29T07:21:46.447Z,4.72
2023-10-29T07:24:36.235Z,5.85
2023-10-29T07:27:23.503Z,5.72
2023-10-29T07:30:11.324Z,6.40
2023-10-29T07:32:58.966Z,6.22
2023-10-29T07:35:46.537Z,7.53
2023-10-29T07:38:33.959Z,7.60
2023-10-29T07:41:22.890Z,3.60
2023-10-29T07:44:10.148Z,5.20
2023-10-29T07:46:57.394Z,5.13
2023-10-29T07:49:44.576Z,6.40
2023-10-29T07:52:31.843Z,4.43
2023-10-29T07:55:20.411Z,4.32
2023-10-29T07:58:07.557Z,7.15
2023-10-29T08:00:54.725Z,3.97
2023-10-29T08:03:44.167Z,7.55
2023-10-29T08:06:31.383Z,8.65
2023-10-29T08:09:18.654Z,2.92
2023-10-29T08:12:06.299Z,5.55
2023-10-29T08:14:53.709Z,4.93
2023-10-29T08:17:41.139Z,4.03
2023-10-29T08:20:28.480Z,6.28
2023-10-29T08:23:16.071Z,4.97
2023-10-29T08:26:04.130Z,6.57
2023-10-29T08:28:51.268Z,4.25
2023-10-29T08:31:38.579Z,5.00
2023-10-29T08:34:26.028Z,5.65
2023-10-29T08:37:13.343Z,4.70
2023-10-29T08:40:00.679Z,4.07
2023-10-29T08:42:47.873Z,3.17
2023-10-29T08:45:42.181Z,5.32
2023-10-29T08:48:30.138Z,3.22
2023-10-29T08:51:17.302Z,5.03
2023-10-29T08:54:05.274Z,6.45
2023-10-29T08:56:52.417Z,4.32
2023-10-29T08:59:40.472Z,4.03
2023-10-29T09:02:27.653Z,5.75
2023-10-29T09:05:16.394Z,5.47
2023-10-29T09:08:05.360Z,3.78
2023-10-29T09:10:52.534Z,3.83
2023-10-29T09:13:39.692Z,3.28
2023-10-29T09:16:26.926Z,2.97
2023-10-29T09:19:15.006Z,3.35
2023-10-29T09:22:02.149Z,5.10
2023-10-29T09:24:49.769Z,2.92
2023-10-29T09:27:37.458Z,4.38
2023-10-29T09:30:24.658Z,5.13
2023-10-29T09:33:14.371Z,4.25
2023-10-29T09:36:01.841Z,4.28
2023-10-29T09:38:49.978Z,2.60
2023-10-29T09:41:39.848Z,3.13
2023-10-29T09:44:32.202Z,4.55
2023-10-29T09:47:23.120Z,4.75
2023-10-29T09:50:10.784Z,2.65
2023-10-29T09:52:59.713Z,2.60
2023-10-29T09:55:49.766Z,3.47
2023-10-29T09:58:37.910Z,2.90
2023-10-29T10:01:25.108Z,4.03
2023-10-29T10:04:12.525Z,3.05
2023-10-29T10:07:00.758Z,3.65
2023-10-29T10:09:53.219Z,2.80
2023-10-29T10:12:51.385Z,1.48
2023-10-29T10:15:39.441Z,3.45
2023-10-29T10:18:26.669Z,3.88
2023-10-29T10:21:14.798Z,4.13
2023-10-29T10:24:02.078Z,4.40
2023-10-29T10:26:50.027Z,3.15
2023-10-29T10:29:38.172Z,5.05
2023-10-29T10:32:25.529Z,3.70
2023-10-29T10:35:12.681Z,3.83
2023-10-29T10:37:59.873Z,3.67
2023-10-29T10:40:48.782Z,3.45
2023-10-29T10:43:35.997Z,4.22
2023-10-29T10:46:24.521Z,2.35
2023-10-29T10:49:12.461Z,3.58
2023-10-29T10:52:02.638Z,4.03
2023-10-29T10:54:50.824Z,2.78
2023-10-29T10:57:38.056Z,3.08
2023-10-29T11:00:25.246Z,3.50
2023-10-29T11:03:28.968Z,2.67
2023-10-29T11:06:19.342Z,3.67
2023-10-29T11:09:13.604Z,2.83
2023-10-29T11:12:01.146Z,4.15
2023-10-29T11:15:18.294Z,2.60
2023-10-29T11:18:05.848Z,3.15
2023-10-29T11:20:54.703Z,1.92
2023-10-29T11:23:41.942Z,4.18
2023-10-29T11:26:29.584Z,3.90
2023-10-29T11:29:43.567Z,6.25
2023-10-29T11:32:30.732Z,3.30
2023-10-29T11:35:20.673Z,2.35
2023-10-29T11:38:31.756Z,2.88
2023-10-29T11:41:39.977Z,2.80
2023-10-29T11:44:33.926Z,3.83
2023-10-29T11:47:21.064Z,3.67
2023-10-29T11:50:08.429Z,2.53
2023-10-29T11:52:55.595Z,2.85
2023-10-29T11:55:43.801Z,2.50
2023-10-29T11:58:31.196Z,3.40
2023-10-29T12:01:20.509Z,2.17
2023-10-29T12:04:10.261Z,2.33
2023-10-29T12:07:00.312Z,2.05
2023-10-29T12:09:47.710Z,2.63
2023-10-29T12:12:36.146Z,1.98
2023-10-29T12:15:25.340Z,1.45
2023-10-29T12:18:21.437Z,2.78
2023-10-29T12:21:11.144Z,1.42
2023-10-29T12:23:59.008Z,2.70
2023-10-29T12:26:46.666Z,2.35
2023-10-29T12:29:33.840Z,2.03
2023-10-29T12:32:28.285Z,2.95
2023-10-29T12:35:15.502Z,2.83
2023-10-29T12:38:02.856Z,3.25
2023-10-29T12:41:09.588Z,3.40
2023-10-29T12:43:58.597Z,2.88
2023-10-29T12:46:52.706Z,3.35
2023-10-29T12:49:39.964Z,3.20
2023-10-29T12:52:27.517Z,2.17
2023-10-29T12:55:14.707Z,4.07
2023-10-29T12:58:05.045Z,2.80
2023-10-29T13:00:56.070Z,2.92
2023-10-29T13:03:44.392Z,3.78
2023-10-29T13:06:33.878Z,4.03
2023-10-29T13:09:26.863Z,2.58
2023-10-29T13:12:14.144Z,2.72
2023-10-29T13:15:01.872Z,2.58
2023-10-29T13:17:49.508Z,3.38
2023-10-29T13:20:36.817Z,3.28
2023-10-29T13:23:24.081Z,2.72
2023-10-29T13:26:11.255Z,2.53
2023-10-29T13:28:58.470Z,2.50
2023-10-29T13:31:47.091Z,2.83
2023-10-29T13:34:34.426Z,2.10
2023-10-29T13:37:21.538Z,2.20
2023-10-29T13:40:10.180Z,2.42
2023-10-29T13:42:57.368Z,1.95
2023-10-29T13:45:44.730Z,2.05
2023-10-29T13:48:32.410Z,3.17
2023-10-29T13:51:22.951Z,2.35
2023-10-29T13:54:10.274Z,1.30
2023-10-29T13:56:58.118Z,2.47
2023-10-29T13:59:48.438Z,3.90
2023-10-29T14:02:36.619Z,3.13
2023-10-29T14:05:24.052Z,2.72
2023-10-29T14:08:11.269Z,5.43
2023-10-29T14:10:58.438Z,2.30
2023-10-29T14:13:47.063Z,2.90
2023-10-29T14:16:40.613Z,2.17
2023-10-29T14:19:27.867Z,0.95
2023-10-29T14:22:15.517Z,3.38
2023-10-29T14:25:04.844Z,3.30
2023-10-29T14:27:52.085Z,2.45
2023-10-29T14:30:41.560Z,2.67
2023-10-29T14:33:29.054Z,2.22
2023-10-29T14:36:16.274Z,2.22
2023-10-29T14:39:03.950Z,2.13
2023-10-29T14:41:51.165Z,2.08
2023-10-29T14:44:38.318Z,3.33
2023-10-29T14:47:25.506Z,4.03
2023-10-29T14:50:14.106Z,3.78
2023-10-29T14:53:01.239Z,3.67
2023-10-29T14:55:49.004Z,3.22
2023-10-29T14:58:36.237Z,4.38
2023-10-29T15:01:25.844Z,4.05
2023-10-29T15:04:13.417Z,3.20
2023-10-29T15:07:00.648Z,3.92
2023-10-29T15:09:47.873Z,3.40
2023-10-29T15:12:36.326Z,5.10
2023-10-29T15:15:29.719Z,4.80
2023-10-29T15:18:19.433Z,3.33
2023-10-29T15:21:12.343Z,3.65
2023-10-29T15:24:00.073Z,5.07
2023-10-29T15:26:47.312Z,2.80
2023-10-29T15:29:34.550Z,3.97
2023-10-29T15:32:21.823Z,3.13
2023-10-29T15:35:10.207Z,2.50
2023-10-29T15:37:57.450Z,3.35
2023-10-29T15:40:44.682Z,2.42
2023-10-29T15:43:33.970Z,3.17
2023-10-29T15:46:22.798Z,2.92
2023-10-29T15:49:10.135Z,5.00
2023-10-29T15:51:58.639Z,3.67
2023-10-29T15:54:46.291Z,3.75
2023-10-29T15:57:33.634Z,2.15
2023-10-29T16:00:20.840Z,3.05
2023-10-29T16:03:08.141Z,2.28
2023-10-29T16:05:55.496Z,1.98
2023-10-29T16:08:42.699Z,4.55
2023-10-29T16:11:29.985Z,2.75
2023-10-29T16:14:17.192Z,3.80
2023-10-29T16:17:05.131Z,4.10
2023-10-29T16:19:52.235Z,3.40
2023-10-29T16:22:39.417Z,2.22
2023-10-29T16:25:26.594Z,1.95
2023-10-29T16:28:13.924Z,3.38
2023-10-29T16:31:01.100Z,3.05
2023-10-29T16:33:48.626Z,4.28
2023-10-29T16:36:35.953Z,4.00
2023-10-29T16:39:24.699Z,5.82
2023-10-29T16:42:12.033Z,4.47
2023-10-29T16:45:01.885Z,3.83
2023-10-29T16:47:49.388Z,4.78
2023-10-29T16:50:52.418Z,4.07
2023-10-29T16:53:43.766Z,4.20
2023-10-29T16:56:30.928Z,4.70
2023-10-29T16:59:19.728Z,5.13
2023-10-29T17:02:07.036Z,2.63
2023-10-29T17:04:54.244Z,5.30
2023-10-29T17:07:41.367Z,2.10
2023-10-29T17:10:28.541Z,3.55
2023-10-29T17:13:17.311Z,3.13
2023-10-29T17:16:05.859Z,2.60
2023-10-29T17:18:53.365Z,2.28
2023-10-29T17:21:40.561Z,4.00
2023-10-29T17:24:28.189Z,3.63
2023-10-29T17:27:15.417Z,5.03
2023-10-29T17:30:04.976Z,2.30
2023-10-29T17:32:58.630Z,3.63
2023-10-29T17:35:46.443Z,12.68
2023-10-29T17:38:33.604Z,4.10
2023-10-29T17:41:22.986Z,2.20
2023-10-29T17:44:10.327Z,3.38
2023-10-29T17:46:58.773Z,3.08
2023-10-29T17:49:45.936Z,2.38
2023-10-29T17:52:34.436Z,3.08
2023-10-29T17:55:21.588Z,3.28
2023-10-29T17:58:08.840Z,4.65
2023-10-29T18:00:56.190Z,1.90
2023-10-29T18:03:45.475Z,2.00
2023-10-29T18:06:32.992Z,2.65
2023-10-29T18:09:20.659Z,1.55
2023-10-29T18:12:08.051Z,1.88
2023-10-29T18:14:55.297Z,3.88
2023-10-29T18:17:42.546Z,1.50
2023-10-29T18:20:29.809Z,4.47
2023-10-29T18:23:17.690Z,3.38
2023-10-29T18:26:04.932Z,2.13
2023-10-29T18:28:52.079Z,3.00
2023-10-29T18:31:39.472Z,2.78
2023-10-29T18:34:26.821Z,2.67
2023-10-29T18:37:14.436Z,2.78
2023-10-29T18:40:01.594Z,2.13
2023-10-29T18:42:49.372Z,2.83
2023-10-29T18:45:41.171Z,2.10
2023-10-29T18:48:28.463Z,2.30
2023-10-29T18:51:17.660Z,1.63
2023-10-29T18:54:07.208Z,2.95
2023-10-29T18:56:55.919Z,3.25
2023-10-29T18:59:43.195Z,3.03
2023-10-29T19:02:30.617Z,2.33
2023-10-29T19:05:18.125Z,1.30
2023-10-29T19:08:05.319Z,1.83
2023-10-29T19:10:52.496Z,1.90
2023-10-29T19:13:39.750Z,1.58
2023-10-29T19:16:27.057Z,2.13
2023-10-29T19:19:17.960Z,1.35
2023-10-29T19:22:06.029Z,1.52
2023-10-29T19:24:53.542Z,2.53
2023-10-29T19:27:40.769Z,1.10
2023-10-29T19:30:28.698Z,2.40
2023-10-29T19:33:15.866Z,4.50
2023-10-29T19:36:13.870Z,1.70
2023-10-29T19:39:01.134Z,2.85
2023-10-29T19:41:49.119Z,2.63
2023-10-29T19:44:38.350Z,2.28
2023-10-29T19:47:26.978Z,1.48
2023-10-29T19:50:16.603Z,2.28
2023-10-29T19:53:04.294Z,2.65
2023-10-29T19:55:51.591Z,1.27
2023-10-29T19:58:39.002Z,2.95
2023-10-29T20:01:26.271Z,2.78
2023-10-29T20:04:13.718Z,1.70
2023-10-29T20:07:01.002Z,3.17
2023-10-29T20:09:48.467Z,1.48
2023-10-29T20:12:36.824Z,1.50
2023-10-29T20:15:26.325Z,2.05
2023-10-29T20:18:13.601Z,1.75
2023-10-29T20:21:00.909Z,2.47
2023-10-29T20:23:48.544Z,1.30
2023-10-29T20:26:35.891Z,2.65
2023-10-29T20:29:23.087Z,1.23
2023-10-29T20:32:10.389Z,2.50
2023-10-29T20:34:57.715Z,3.38
2023-10-29T20:37:45.185Z,2.75
2023-10-29T20:40:32.354Z,3.10
2023-10-29T20:43:19.498Z,1.55
2023-10-29T20:46:07.005Z,2.40
2023-10-29T20:48:54.219Z,2.45
2023-10-29T20:51:41.480Z,2.83
2023-10-29T20:54:28.709Z,2.40
2023-10-29T20:57:15.961Z,2.60
2023-10-29T21:00:06.234Z,1.77
2023-10-29T21:02:53.652Z,3.20
2023-10-29T21:05:41.000Z,3.17
2023-10-29T21:08:28.454Z,4.68
2023-10-29T21:11:17.971Z,1.58
2023-10-29T21:14:05.675Z,2.28
2023-10-29T21:16:52.825Z,2.88
2023-10-29T21:19:40.003Z,2.08
2023-10-29T21:22:27.162Z,2.10
2023-10-29T21:25:15.458Z,2.60
2023-10-29T21:28:02.821Z,2.47
2023-10-29T21:30:51.286Z,2.67
2023-10-29T21:33:39.332Z,2.45
2023-10-29T21:36:26.637Z,2.92
2023-10-29T21:39:13.975Z,2.08
2023-10-29T21:42:01.293Z,3.47
2023-10-29T21:44:48.609Z,1.67
2023-10-29T21:47:38.780Z,2.05
2023-10-29T21:50:26.180Z,2.25
2023-10-29T21:53:13.376Z,3.38
2023-10-29T21:56:06.367Z,3.88
2023-10-29T21:58:53.625Z,2.28
2023-10-29T22:01:40.763Z,2.17
2023-10-29T22:04:31.510Z,2.10
2023-10-29T22:07:18.742Z,2.42
2023-10-29T22:10:06.627Z,2.58
2023-10-29T22:12:54.466Z,2.35
2023-10-29T22:15:41.603Z,0.77
2023-10-29T22:18:28.858Z,1.88
2023-10-29T22:21:16.070Z,2.08
2023-10-29T22:24:03.414Z,1.83
2023-10-29T22:26:51.118Z,3.33
2023-10-29T22:29:38.257Z,3.67
2023-10-29T22:32:25.553Z,2.75
2023-10-29T22:35:12.673Z,3.40
2023-10-29T22:38:00.293Z,4.47
2023-10-29T22:40:47.427Z,2.65
2023-10-29T22:43:35.928Z,2.45
2023-10-29T22:46:23.833Z,2.63
2023-10-29T22:49:11.083Z,1.48
2023-10-29T22:51:58.230Z,1.90
2023-10-29T22:54:49.449Z,1.35
2023-10-29T22:57:36.687Z,4.30
2023-10-29T23:00:24.383Z,1.33
2023-10-29T23:03:11.743Z,1.77
2023-10-29T23:06:04.371Z,2.33
2023-10-29T23:08:51.582Z,2.28
2023-10-29T23:11:38.666Z,3.65
2023-10-29T23:14:25.772Z,2.78
2023-10-29T23:17:12.931Z,2.20
2023-10-29T23:20:00.203Z,1.80
2023-10-29T23:22:47.689Z,1.75
2023-10-29T23:25:34.900Z,2.60
2023-10-29T23:28:36.504Z,3.92
2023-10-29T23:31:24.891Z,2.63
2023-10-29T23:34:12.102Z,3.47
2023-10-29T23:36:59.249Z,1.77
2023-10-29T23:39:46.619Z,1.33
2023-10-29T23:42:35.094Z,3.85
2023-10-29T23:45:22.825Z,2.55
2023-10-29T23:48:10.874Z,3.83
2023-10-29T23:50:58.150Z,4.18
2023-10-29T23:53:45.287Z,1.95
2023-10-29T23:56:32.401Z,1.95
2023-10-29T23:59:19.581Z,2.05
